Portland, Texas
Current Conditions -  °F | °C
As of 4:35 PM on Monday 22 Dec 2014 (Local Time) from KTFP Reporting Station
Clear Clear  
Wind Chill: 21°   Ceiling: Unl
Heat Index: 21°   Visibility: 10mi
Dew Point: 16°   Wind: 8mph
Humidity: 74%   Direction: 140°SE
Pressure: 29.64"   Gusts: NA
Location:  27.88°N, 97.32°W
Report Text: KTFP 222235Z AUTO 14007KT 10SM CLR 21/16 A2964 RMK AO2 T02080160
Loading
Personal Weather Stations






























Interactive Weather Map New forecast layout! Learn more

10-Day Weather Forecast

Advertisements
Track Severe Weather on mobile